createdAt,value
2018-05-25T00:00:30.851Z,15.70
2018-05-25T00:02:58.482Z,15.70
2018-05-25T00:05:26.249Z,15.70
2018-05-25T00:07:53.811Z,15.70
2018-05-25T00:10:21.394Z,15.60
2018-05-25T00:12:48.945Z,15.50
2018-05-25T00:15:16.611Z,15.50
2018-05-25T00:17:44.272Z,15.60
2018-05-25T00:20:12.018Z,15.60
2018-05-25T00:22:39.604Z,15.50
2018-05-25T00:25:07.181Z,15.50
2018-05-25T00:27:34.955Z,15.50
2018-05-25T00:30:02.509Z,15.50
2018-05-25T00:32:30.115Z,15.60
2018-05-25T00:34:57.676Z,15.70
2018-05-25T00:37:25.260Z,15.70
2018-05-25T00:39:53.014Z,15.60
2018-05-25T00:42:20.757Z,15.60
2018-05-25T00:44:48.344Z,15.70
2018-05-25T00:47:16.004Z,15.70
2018-05-25T00:49:43.584Z,15.60
2018-05-25T00:52:11.121Z,15.60
2018-05-25T00:54:38.685Z,15.50
2018-05-25T00:57:06.254Z,15.60
2018-05-25T00:59:33.826Z,15.50
2018-05-25T01:02:01.400Z,15.50
2018-05-25T01:04:29.732Z,15.50
2018-05-25T01:06:57.303Z,15.50
2018-05-25T01:09:24.878Z,15.50
2018-05-25T01:11:52.472Z,15.50
2018-05-25T01:14:20.073Z,15.50
2018-05-25T01:16:48.039Z,15.40
2018-05-25T01:19:15.713Z,15.40
2018-05-25T01:21:43.266Z,15.40
2018-05-25T01:24:11.052Z,15.40
2018-05-25T01:26:38.638Z,15.30
2018-05-25T01:29:06.206Z,15.30
2018-05-25T01:31:34.542Z,15.30
2018-05-25T01:34:02.289Z,15.30
2018-05-25T01:36:29.852Z,15.30
2018-05-25T01:38:57.550Z,15.30
2018-05-25T01:41:25.105Z,15.30
2018-05-25T01:43:52.663Z,15.30
2018-05-25T01:46:21.739Z,15.30
2018-05-25T01:48:49.301Z,15.30
2018-05-25T01:51:16.936Z,15.30
2018-05-25T01:53:44.495Z,15.20
2018-05-25T01:56:12.163Z,15.20
2018-05-25T01:58:39.727Z,15.20
2018-05-25T02:01:07.321Z,15.20
2018-05-25T02:03:34.885Z,15.20
2018-05-25T02:06:02.612Z,15.20
2018-05-25T02:08:30.157Z,15.20
2018-05-25T02:10:57.736Z,15.20
2018-05-25T02:13:25.303Z,15.10
2018-05-25T02:15:52.874Z,15.10
2018-05-25T02:18:20.475Z,15.10
2018-05-25T02:20:48.273Z,15.00
2018-05-25T02:23:15.879Z,15.00
2018-05-25T02:25:44.949Z,14.90
2018-05-25T02:28:12.535Z,14.90
2018-05-25T02:30:40.345Z,15.00
2018-05-25T02:33:07.917Z,14.90
2018-05-25T02:35:35.562Z,14.80
2018-05-25T02:38:03.120Z,14.80
2018-05-25T02:40:30.831Z,14.70
2018-05-25T02:42:58.404Z,14.70
2018-05-25T02:45:25.999Z,14.70
2018-05-25T02:47:53.567Z,14.60
2018-05-25T02:50:21.339Z,14.50
2018-05-25T02:52:49.152Z,14.50
2018-05-25T02:55:17.771Z,14.40
2018-05-25T02:57:45.312Z,14.30
2018-05-25T03:00:12.921Z,14.30
2018-05-25T03:02:40.483Z,14.30
2018-05-25T03:05:08.031Z,14.20
2018-05-25T03:07:35.620Z,14.10
2018-05-25T03:10:04.815Z,13.90
2018-05-25T03:12:32.524Z,13.90
2018-05-25T03:15:00.124Z,13.80
2018-05-25T03:17:27.772Z,13.80
2018-05-25T03:19:55.347Z,13.80
2018-05-25T03:22:22.931Z,13.90
2018-05-25T03:24:51.291Z,13.80
2018-05-25T03:27:19.045Z,13.80
2018-05-25T03:29:46.614Z,13.80
2018-05-25T03:32:14.172Z,13.80
2018-05-25T03:34:41.759Z,13.80
2018-05-25T03:37:09.327Z,13.80
2018-05-25T03:39:37.842Z,13.70
2018-05-25T03:42:05.463Z,13.70
2018-05-25T03:44:33.785Z,13.60
2018-05-25T03:47:01.357Z,13.60
2018-05-25T03:49:28.911Z,13.60
2018-05-25T03:51:56.732Z,13.60
2018-05-25T03:54:24.521Z,13.60
2018-05-25T03:56:52.071Z,13.70
2018-05-25T03:59:31.332Z,13.70
2018-05-25T04:01:59.785Z,13.70
2018-05-25T04:04:27.431Z,13.70
2018-05-25T04:06:55.006Z,13.70
2018-05-25T04:09:22.573Z,13.80
2018-05-25T04:11:50.116Z,13.80
2018-05-25T04:14:17.674Z,13.80
2018-05-25T04:16:45.227Z,13.90
2018-05-25T04:19:12.964Z,13.90
2018-05-25T04:21:40.537Z,13.90
2018-05-25T04:24:08.946Z,14.10
2018-05-25T04:26:36.510Z,14.10
2018-05-25T04:29:04.104Z,14.20
2018-05-25T04:31:31.688Z,14.30
2018-05-25T04:33:59.291Z,14.30
2018-05-25T04:36:26.877Z,14.40
2018-05-25T04:38:54.436Z,14.40
2018-05-25T04:41:22.371Z,14.50
2018-05-25T04:43:50.124Z,14.70
2018-05-25T04:46:17.728Z,14.90
2018-05-25T04:48:45.293Z,15.10
2018-05-25T04:51:12.837Z,15.30
2018-05-25T04:53:40.423Z,15.50
2018-05-25T04:56:07.971Z,15.70
2018-05-25T04:58:35.675Z,15.70
2018-05-25T05:01:04.001Z,15.70
2018-05-25T05:03:31.613Z,15.70
2018-05-25T05:05:59.190Z,15.70
2018-05-25T05:08:26.769Z,15.80
2018-05-25T05:10:54.332Z,15.80
2018-05-25T05:13:21.978Z,15.80
2018-05-25T05:15:49.564Z,15.80
2018-05-25T05:18:17.279Z,15.70
2018-05-25T05:20:44.861Z,15.70
2018-05-25T05:23:12.431Z,15.70
2018-05-25T05:25:39.972Z,15.80
2018-05-25T05:28:07.733Z,15.70
2018-05-25T05:30:35.304Z,15.70
2018-05-25T05:33:02.875Z,15.70
2018-05-25T05:35:30.425Z,15.70
2018-05-25T05:37:57.989Z,15.70
2018-05-25T05:40:25.565Z,15.60
2018-05-25T05:42:53.169Z,15.60
2018-05-25T05:45:21.490Z,15.70
2018-05-25T05:47:49.080Z,15.70
2018-05-25T05:50:16.764Z,15.90
2018-05-25T05:52:44.353Z,16.00
2018-05-25T05:55:11.950Z,16.20
2018-05-25T05:57:39.536Z,16.30
2018-05-25T06:00:07.860Z,16.60
2018-05-25T06:02:35.627Z,16.60
2018-05-25T06:05:03.383Z,16.60
2018-05-25T06:07:31.000Z,16.90
2018-05-25T06:09:59.324Z,17.70
2018-05-25T06:12:26.994Z,17.60
2018-05-25T06:14:54.550Z,17.70
2018-05-25T06:17:22.111Z,17.70
2018-05-25T06:19:49.694Z,17.70
2018-05-25T06:22:17.290Z,17.60
2018-05-25T06:24:44.854Z,17.40
2018-05-25T06:27:12.645Z,17.30
2018-05-25T06:29:40.239Z,17.20
2018-05-25T06:32:07.794Z,17.20
2018-05-25T06:34:36.136Z,17.10
2018-05-25T06:37:03.696Z,17.10
2018-05-25T06:39:31.288Z,17.20
2018-05-25T06:41:59.009Z,17.30
2018-05-25T06:44:26.688Z,17.20
2018-05-25T06:46:54.263Z,17.30
2018-05-25T06:49:22.051Z,17.30
2018-05-25T06:51:49.660Z,17.40
2018-05-25T06:54:17.231Z,17.50
2018-05-25T06:56:45.036Z,17.50
2018-05-25T06:59:12.613Z,17.60
2018-05-25T07:01:40.366Z,17.60
2018-05-25T07:04:08.703Z,17.70
2018-05-25T07:06:36.343Z,17.70
2018-05-25T07:09:03.872Z,17.80
2018-05-25T07:11:31.446Z,17.90
2018-05-25T07:13:59.839Z,18.20
2018-05-25T07:16:27.400Z,18.20
2018-05-25T07:18:54.964Z,18.20
2018-05-25T07:21:22.532Z,18.30
2018-05-25T07:23:50.106Z,18.50
2018-05-25T07:26:18.078Z,18.60
2018-05-25T07:28:46.547Z,18.70
2018-05-25T07:31:14.104Z,18.80
2018-05-25T07:33:41.672Z,18.70
2018-05-25T07:36:09.224Z,19.00
2018-05-25T07:38:36.833Z,18.90
2018-05-25T07:41:04.404Z,19.00
2018-05-25T07:43:32.071Z,19.10
2018-05-25T07:45:59.635Z,19.10
2018-05-25T07:48:27.223Z,19.20
2018-05-25T07:50:54.963Z,19.30
2018-05-25T07:53:22.503Z,19.40
2018-05-25T07:55:50.087Z,19.60
2018-05-25T07:58:17.800Z,19.60
2018-05-25T08:00:45.370Z,19.70
2018-05-25T08:03:12.968Z,19.80
2018-05-25T08:05:40.543Z,19.80
2018-05-25T08:08:08.137Z,20.10
2018-05-25T08:10:35.777Z,20.30
2018-05-25T08:13:03.315Z,20.60
2018-05-25T08:15:30.927Z,20.50
2018-05-25T08:17:58.557Z,20.60
2018-05-25T08:20:26.148Z,21.00
2018-05-25T08:22:54.565Z,21.30
2018-05-25T08:25:22.245Z,21.20
2018-05-25T08:27:49.857Z,21.20
2018-05-25T08:30:17.453Z,21.30
2018-05-25T08:32:45.064Z,21.50
2018-05-25T08:35:12.679Z,21.50
2018-05-25T08:37:40.400Z,21.50
2018-05-25T08:40:08.755Z,21.50
2018-05-25T08:42:36.335Z,21.40
2018-05-25T08:45:05.403Z,21.60
2018-05-25T08:47:32.985Z,21.60
2018-05-25T08:50:00.584Z,21.80
2018-05-25T08:52:28.194Z,22.10
2018-05-25T08:54:55.753Z,22.10
2018-05-25T08:57:23.318Z,21.90
2018-05-25T08:59:50.895Z,21.90
2018-05-25T09:02:18.480Z,22.10
2018-05-25T09:04:46.043Z,22.20
2018-05-25T09:07:13.644Z,22.30
2018-05-25T09:09:41.356Z,22.10
2018-05-25T09:12:08.891Z,21.90
2018-05-25T09:14:37.225Z,22.10
2018-05-25T09:17:04.824Z,22.00
2018-05-25T09:19:33.173Z,22.10
2018-05-25T09:22:00.756Z,22.00
2018-05-25T09:24:29.320Z,22.70
2018-05-25T09:26:57.076Z,22.60
2018-05-25T09:29:24.712Z,23.00
2018-05-25T09:31:52.273Z,23.40
2018-05-25T09:34:19.868Z,23.70
2018-05-25T09:36:47.426Z,23.90
2018-05-25T09:39:15.038Z,23.70
2018-05-25T09:41:42.624Z,23.50
2018-05-25T09:44:10.471Z,23.40
2018-05-25T09:46:38.221Z,23.40
2018-05-25T09:49:05.813Z,23.80
2018-05-25T09:51:33.383Z,24.00
2018-05-25T09:54:01.317Z,23.60
2018-05-25T09:56:28.888Z,23.30
2018-05-25T09:58:56.460Z,23.30
2018-05-25T10:01:24.052Z,23.20
2018-05-25T10:03:51.615Z,23.10
2018-05-25T10:06:19.969Z,22.90
2018-05-25T10:08:47.661Z,22.90
2018-05-25T10:11:15.243Z,22.60
2018-05-25T10:13:42.848Z,22.50
2018-05-25T10:16:10.431Z,22.70
2018-05-25T10:18:38.031Z,22.80
2018-05-25T10:21:05.601Z,22.80
2018-05-25T10:23:33.256Z,22.80
2018-05-25T10:26:00.826Z,22.70
2018-05-25T10:28:28.421Z,22.70
2018-05-25T10:30:56.004Z,22.50
2018-05-25T10:33:23.594Z,22.60
2018-05-25T10:35:51.164Z,22.50
2018-05-25T10:38:18.864Z,22.40
2018-05-25T10:40:46.437Z,22.40
2018-05-25T10:43:14.016Z,22.40
2018-05-25T10:45:42.408Z,22.70
2018-05-25T10:48:10.124Z,22.70
2018-05-25T10:50:37.710Z,22.90
2018-05-25T10:53:05.528Z,23.00
2018-05-25T10:55:33.137Z,23.00
2018-05-25T10:58:01.137Z,23.10
2018-05-25T11:00:28.842Z,23.20
2018-05-25T11:02:56.545Z,23.10
2018-05-25T11:05:24.125Z,22.70
2018-05-25T11:07:51.765Z,22.50
2018-05-25T11:10:19.371Z,22.60
2018-05-25T11:12:48.449Z,22.20
2018-05-25T11:15:16.816Z,22.20
2018-05-25T11:17:44.466Z,22.20
2018-05-25T11:20:12.022Z,22.20
2018-05-25T11:22:39.611Z,21.90
2018-05-25T11:25:07.200Z,21.70
2018-05-25T11:27:35.008Z,21.60
2018-05-25T11:30:02.555Z,21.50
2018-05-25T11:32:30.168Z,21.40
2018-05-25T11:34:57.785Z,21.40
2018-05-25T11:37:25.374Z,21.40
2018-05-25T11:39:52.936Z,21.60
2018-05-25T11:42:20.545Z,21.70
2018-05-25T11:44:48.870Z,22.20
2018-05-25T11:47:16.441Z,22.20
2018-05-25T11:49:44.022Z,22.40
2018-05-25T11:52:11.862Z,22.60
2018-05-25T11:54:39.501Z,22.70
2018-05-25T11:57:07.096Z,22.90
2018-05-25T11:59:34.690Z,22.90
2018-05-25T12:02:02.290Z,23.60
2018-05-25T12:04:29.888Z,24.00
2018-05-25T12:06:58.220Z,24.60
2018-05-25T12:09:26.075Z,24.60
2018-05-25T12:11:53.641Z,24.30
2018-05-25T12:14:21.224Z,23.80
2018-05-25T12:16:48.779Z,23.60
2018-05-25T12:19:16.401Z,23.10
2018-05-25T12:21:43.983Z,22.90
2018-05-25T12:24:11.896Z,22.90
2018-05-25T12:26:39.605Z,23.00
2018-05-25T12:29:07.187Z,22.60
2018-05-25T12:31:34.793Z,22.60
2018-05-25T12:34:03.122Z,22.40
2018-05-25T12:36:30.712Z,22.40
2018-05-25T12:38:58.287Z,22.10
2018-05-25T12:41:25.905Z,21.80
2018-05-25T12:43:53.521Z,21.40
2018-05-25T12:46:21.322Z,21.20
2018-05-25T12:48:48.976Z,21.10
2018-05-25T12:51:16.603Z,21.10
2018-05-25T12:53:44.339Z,21.10
2018-05-25T12:56:12.148Z,21.10
2018-05-25T12:58:39.756Z,21.20
2018-05-25T13:01:07.356Z,21.70
2018-05-25T13:03:35.021Z,22.10
2018-05-25T13:06:02.621Z,22.40
2018-05-25T13:08:30.327Z,22.30
2018-05-25T13:10:58.744Z,22.50
2018-05-25T13:13:26.386Z,22.50
2018-05-25T13:15:53.997Z,22.30
2018-05-25T13:18:23.075Z,21.80
2018-05-25T13:20:50.697Z,21.80
2018-05-25T13:23:18.321Z,21.90
2018-05-25T13:25:45.958Z,21.90
2018-05-25T13:28:13.626Z,21.90
2018-05-25T13:30:41.239Z,21.60
2018-05-25T13:33:08.860Z,21.70
2018-05-25T13:35:36.476Z,21.60
2018-05-25T13:38:04.055Z,21.60
2018-05-25T13:40:31.730Z,21.60
2018-05-25T13:42:59.321Z,21.50
2018-05-25T13:45:26.950Z,21.50
2018-05-25T13:47:54.560Z,21.50
2018-05-25T13:50:22.925Z,21.80
2018-05-25T13:52:50.581Z,21.80
2018-05-25T13:55:18.441Z,22.10
2018-05-25T13:57:47.810Z,22.40
2018-05-25T14:00:15.548Z,22.30
2018-05-25T14:02:43.331Z,22.40
2018-05-25T14:05:10.950Z,22.50
2018-05-25T14:07:38.587Z,22.60
2018-05-25T14:10:06.381Z,22.80
2018-05-25T14:12:34.004Z,22.80
2018-05-25T14:15:01.775Z,22.90
2018-05-25T14:17:29.386Z,23.20
2018-05-25T14:19:57.043Z,23.20
2018-05-25T14:22:24.631Z,23.10
2018-05-25T14:24:52.243Z,23.50
2018-05-25T14:27:19.816Z,23.40
2018-05-25T14:29:47.427Z,23.00
2018-05-25T14:32:15.062Z,23.00
2018-05-25T14:34:42.649Z,23.00
2018-05-25T14:37:10.243Z,23.40
2018-05-25T14:39:37.856Z,23.50
2018-05-25T14:42:05.450Z,23.80
2018-05-25T14:44:33.048Z,24.40
2018-05-25T14:47:00.657Z,24.40
2018-05-25T14:49:28.290Z,24.30
2018-05-25T14:51:56.033Z,24.10
2018-05-25T14:54:23.620Z,24.10
2018-05-25T14:56:51.246Z,24.30
2018-05-25T14:59:18.826Z,24.30
2018-05-25T15:01:46.468Z,24.60
2018-05-25T15:04:14.234Z,24.60
2018-05-25T15:06:42.072Z,24.60
2018-05-25T15:09:09.563Z,24.80
2018-05-25T15:11:37.139Z,25.00
2018-05-25T15:14:04.754Z,25.50
2018-05-25T15:16:33.139Z,27.80
2018-05-25T15:19:00.752Z,27.70
2018-05-25T15:21:28.455Z,28.60
2018-05-25T15:23:56.050Z,28.90
2018-05-25T15:26:23.617Z,30.30
2018-05-25T15:28:51.313Z,31.50
2018-05-25T15:31:18.919Z,32.00
2018-05-25T15:33:46.527Z,34.20
2018-05-25T15:36:14.089Z,34.60
2018-05-25T15:38:41.725Z,34.50
2018-05-25T15:41:09.337Z,33.90
2018-05-25T15:43:37.083Z,34.20
2018-05-25T15:46:05.491Z,31.90
2018-05-25T15:48:33.101Z,31.90
2018-05-25T15:51:00.763Z,30.70
2018-05-25T15:53:28.382Z,30.40
2018-05-25T15:55:56.031Z,29.50
2018-05-25T15:58:24.399Z,28.80
2018-05-25T16:00:52.080Z,28.80
2018-05-25T16:03:26.700Z,29.50
2018-05-25T16:05:54.314Z,29.00
2018-05-25T16:08:21.902Z,28.90
2018-05-25T16:10:50.252Z,28.20
2018-05-25T16:13:17.885Z,28.10
2018-05-25T16:15:45.515Z,28.30
2018-05-25T16:18:13.508Z,28.30
2018-05-25T16:20:41.151Z,27.80
2018-05-25T16:23:08.753Z,27.70
2018-05-25T16:25:36.351Z,27.40
2018-05-25T16:28:04.720Z,27.20
2018-05-25T16:30:32.443Z,27.20
2018-05-25T16:33:00.033Z,27.00
2018-05-25T16:35:27.815Z,26.80
2018-05-25T16:37:56.164Z,27.50
2018-05-25T16:40:23.771Z,27.50
2018-05-25T16:42:51.357Z,28.10
2018-05-25T16:45:19.005Z,28.00
2018-05-25T16:47:46.590Z,27.70
2018-05-25T16:50:14.292Z,27.80
2018-05-25T16:52:42.094Z,28.30
2018-05-25T16:55:09.712Z,28.10
2018-05-25T16:57:38.134Z,27.50
2018-05-25T17:00:05.766Z,27.40
2018-05-25T17:02:33.413Z,27.20
2018-05-25T17:05:02.158Z,26.60
2018-05-25T17:07:29.805Z,26.60
2018-05-25T17:09:57.469Z,26.50
2018-05-25T17:12:25.142Z,26.10
2018-05-25T17:14:52.826Z,26.10
2018-05-25T17:17:20.532Z,26.10
2018-05-25T17:19:48.970Z,25.80
2018-05-25T17:22:16.606Z,25.80
2018-05-25T17:24:44.367Z,25.50
2018-05-25T17:27:12.113Z,25.30
2018-05-25T17:29:40.193Z,25.10
2018-05-25T17:32:07.782Z,24.90
2018-05-25T17:34:35.393Z,24.70
2018-05-25T17:37:02.982Z,24.70
2018-05-25T17:39:30.616Z,24.40
2018-05-25T17:41:58.239Z,24.30
2018-05-25T17:44:25.817Z,24.30
2018-05-25T17:46:53.566Z,24.20
2018-05-25T17:49:21.171Z,24.10
2018-05-25T17:51:48.761Z,24.00
2018-05-25T17:54:16.345Z,23.90
2018-05-25T17:56:43.953Z,23.70
2018-05-25T17:59:11.525Z,23.60
2018-05-25T18:01:39.146Z,23.50
2018-05-25T18:04:07.479Z,23.00
2018-05-25T18:06:35.082Z,23.00
2018-05-25T18:09:03.430Z,22.60
2018-05-25T18:11:31.046Z,22.50
2018-05-25T18:13:58.636Z,22.30
2018-05-25T18:16:26.208Z,22.10
2018-05-25T18:18:53.807Z,22.00
2018-05-25T18:21:22.187Z,21.70
2018-05-25T18:23:49.860Z,21.70
2018-05-25T18:26:17.550Z,21.60
2018-05-25T18:28:45.161Z,21.60
2018-05-25T18:31:12.747Z,21.70
2018-05-25T18:33:40.343Z,21.60
2018-05-25T18:36:07.909Z,21.50
2018-05-25T18:38:35.490Z,21.40
2018-05-25T18:41:03.949Z,21.10
2018-05-25T18:43:31.555Z,21.10
2018-05-25T18:45:59.167Z,21.10
2018-05-25T18:48:26.883Z,21.10
2018-05-25T18:50:54.467Z,21.00
2018-05-25T18:53:22.324Z,20.90
2018-05-25T18:55:49.943Z,20.90
2018-05-25T18:58:18.321Z,20.70
2018-05-25T19:00:45.951Z,20.70
2018-05-25T19:03:13.541Z,20.60
2018-05-25T19:05:41.977Z,20.50
2018-05-25T19:08:09.634Z,20.50
2018-05-25T19:10:37.239Z,20.50
2018-05-25T19:13:05.584Z,20.30
2018-05-25T19:15:33.220Z,20.30
2018-05-25T19:18:00.802Z,20.30
2018-05-25T19:20:28.392Z,20.20
2018-05-25T19:22:55.960Z,20.10
2018-05-25T19:25:23.658Z,20.20
2018-05-25T19:27:51.269Z,20.20
2018-05-25T19:30:18.853Z,20.20
2018-05-25T19:32:46.421Z,20.20
2018-05-25T19:35:14.814Z,20.00
2018-05-25T19:37:42.382Z,19.90
2018-05-25T19:40:09.940Z,20.00
2018-05-25T19:42:37.576Z,19.90
2018-05-25T19:45:05.262Z,19.80
2018-05-25T19:47:32.858Z,19.90
2018-05-25T19:50:00.445Z,19.80
2018-05-25T19:52:28.237Z,19.80
2018-05-25T19:54:55.821Z,19.70
2018-05-25T19:57:23.419Z,19.60
2018-05-25T19:59:51.017Z,19.60
2018-05-25T20:02:18.638Z,19.50
2018-05-25T20:04:47.240Z,19.40
2018-05-25T20:07:15.748Z,19.30
2018-05-25T20:09:43.512Z,19.30
2018-05-25T20:12:11.079Z,19.30
2018-05-25T20:14:38.894Z,19.30
2018-05-25T20:17:06.541Z,19.20
2018-05-25T20:19:34.142Z,19.20
2018-05-25T20:22:01.762Z,19.20
2018-05-25T20:24:29.333Z,19.10
2018-05-25T20:26:56.897Z,19.10
2018-05-25T20:29:24.500Z,19.10
2018-05-25T20:31:52.162Z,19.00
2018-05-25T20:34:19.776Z,19.00
2018-05-25T20:36:48.109Z,19.00
2018-05-25T20:39:15.738Z,18.90
2018-05-25T20:41:43.505Z,18.90
2018-05-25T20:44:11.117Z,18.90
2018-05-25T20:46:38.727Z,18.90
2018-05-25T20:49:07.115Z,18.80
2018-05-25T20:51:34.796Z,18.80
2018-05-25T20:54:02.413Z,18.80
2018-05-25T20:56:30.101Z,18.80
2018-05-25T20:58:57.910Z,18.80
2018-05-25T21:01:25.546Z,18.80
2018-05-25T21:03:53.388Z,18.70
2018-05-25T21:06:20.986Z,18.60
2018-05-25T21:08:48.580Z,18.60
2018-05-25T21:11:16.165Z,18.50
2018-05-25T21:13:43.980Z,18.50
2018-05-25T21:16:11.566Z,18.40
2018-05-25T21:18:39.237Z,18.40
2018-05-25T21:21:07.608Z,18.30
2018-05-25T21:23:35.198Z,18.30
2018-05-25T21:26:02.805Z,18.30
2018-05-25T21:28:31.162Z,18.30
2018-05-25T21:30:58.920Z,18.30
2018-05-25T21:33:26.510Z,18.30
2018-05-25T21:35:54.086Z,18.30
2018-05-25T21:38:21.776Z,18.30
2018-05-25T21:40:50.135Z,18.20
2018-05-25T21:43:18.507Z,18.20
2018-05-25T21:45:46.122Z,18.20
2018-05-25T21:48:13.737Z,18.10
2018-05-25T21:50:41.322Z,18.00
2018-05-25T21:53:08.893Z,17.90
2018-05-25T21:55:36.539Z,17.80
2018-05-25T21:58:04.211Z,17.70
2018-05-25T22:00:31.916Z,17.70
2018-05-25T22:02:59.508Z,17.60
2018-05-25T22:05:27.255Z,17.50
2018-05-25T22:07:54.864Z,17.50
2018-05-25T22:10:22.455Z,17.30
2018-05-25T22:12:50.035Z,17.20
2018-05-25T22:15:17.656Z,17.10
2018-05-25T22:17:45.274Z,17.00
2018-05-25T22:20:12.900Z,16.90
2018-05-25T22:22:40.513Z,16.90
2018-05-25T22:25:08.168Z,16.80
2018-05-25T22:27:36.506Z,16.70
2018-05-25T22:30:04.096Z,16.70
2018-05-25T22:32:32.528Z,16.70
2018-05-25T22:35:00.118Z,16.70
2018-05-25T22:37:28.500Z,16.60
2018-05-25T22:39:56.113Z,16.60
2018-05-25T22:42:35.420Z,16.60
2018-05-25T22:45:14.748Z,16.50
2018-05-25T22:47:55.040Z,16.40
2018-05-25T22:50:34.520Z,16.40
2018-05-25T22:53:07.260Z,16.40
2018-05-25T22:55:34.871Z,16.40
2018-05-25T22:58:02.502Z,16.40
2018-05-25T23:00:30.083Z,16.40
2018-05-25T23:02:57.659Z,16.40
2018-05-25T23:05:25.983Z,16.50
2018-05-25T23:07:53.577Z,16.50
2018-05-25T23:10:21.157Z,16.50
2018-05-25T23:12:48.881Z,16.50
2018-05-25T23:15:16.496Z,16.50
2018-05-25T23:17:44.079Z,16.50
2018-05-25T23:20:12.420Z,16.50
2018-05-25T23:22:40.168Z,16.50
2018-05-25T23:25:08.592Z,16.50
2018-05-25T23:27:36.192Z,16.50
2018-05-25T23:30:04.567Z,16.40
2018-05-25T23:32:32.272Z,16.40
2018-05-25T23:35:00.663Z,16.30
2018-05-25T23:37:28.253Z,16.30
2018-05-25T23:39:55.841Z,16.30
2018-05-25T23:42:23.412Z,16.40
2018-05-25T23:44:50.981Z,16.30
2018-05-25T23:47:19.293Z,16.20
2018-05-25T23:49:47.207Z,16.20
2018-05-25T23:52:14.794Z,16.20
2018-05-25T23:54:43.128Z,16.10
2018-05-25T23:57:10.924Z,16.10
2018-05-25T23:59:39.302Z,16.10
